sensor_id;sensor_type;location;lat;lon;timestamp;pressure;altitude;pressure_sealevel;temperature;humidity
4199;BME280;2113;50.946;14.610;2023-11-18T00:01:21;97460.25;;;1.25;89.06
4199;BME280;2113;50.946;14.610;2023-11-18T00:03:51;97463.66;;;1.25;88.67
4199;BME280;2113;50.946;14.610;2023-11-18T00:06:20;97465.44;;;1.25;88.93
4199;BME280;2113;50.946;14.610;2023-11-18T00:08:48;97460.25;;;1.25;89.64
4199;BME280;2113;50.946;14.610;2023-11-18T00:11:16;97469.69;;;1.26;89.09
4199;BME280;2113;50.946;14.610;2023-11-18T00:13:45;97473.91;;;1.27;89.05
4199;BME280;2113;50.946;14.610;2023-11-18T00:16:13;97472.03;;;1.29;89.58
4199;BME280;2113;50.946;14.610;2023-11-18T00:18:43;97468.72;;;1.27;88.54
4199;BME280;2113;50.946;14.610;2023-11-18T00:21:13;97478.06;;;1.29;88.92
4199;BME280;2113;50.946;14.610;2023-11-18T00:23:41;97479.84;;;1.29;88.70
4199;BME280;2113;50.946;14.610;2023-11-18T00:26:09;97485.72;;;1.31;88.65
4199;BME280;2113;50.946;14.610;2023-11-18T00:28:37;97494.69;;;1.27;88.46
4199;BME280;2113;50.946;14.610;2023-11-18T00:31:06;97493.47;;;1.21;88.84
4199;BME280;2113;50.946;14.610;2023-11-18T00:33:34;97501.94;;;1.23;88.87
4199;BME280;2113;50.946;14.610;2023-11-18T00:36:03;97503.97;;;1.20;89.10
4199;BME280;2113;50.946;14.610;2023-11-18T00:38:32;97512.47;;;1.22;88.89
4199;BME280;2113;50.946;14.610;2023-11-18T00:41:01;97514.47;;;1.18;89.61
4199;BME280;2113;50.946;14.610;2023-11-18T00:43:29;97513.94;;;1.15;89.35
4199;BME280;2113;50.946;14.610;2023-11-18T00:45:58;97522.97;;;0.99;89.74
4199;BME280;2113;50.946;14.610;2023-11-18T00:48:27;97532.28;;;1.02;89.52
4199;BME280;2113;50.946;14.610;2023-11-18T00:50:56;97528.16;;;0.99;89.34
4199;BME280;2113;50.946;14.610;2023-11-18T00:53:25;97530.88;;;0.98;90.03
4199;BME280;2113;50.946;14.610;2023-11-18T00:55:54;97542.66;;;1.02;90.55
4199;BME280;2113;50.946;14.610;2023-11-18T00:58:23;97547.53;;;0.95;89.92
4199;BME280;2113;50.946;14.610;2023-11-18T01:00:51;97551.22;;;0.93;90.21
4199;BME280;2113;50.946;14.610;2023-11-18T01:03:19;97560.66;;;0.94;90.78
4199;BME280;2113;50.946;14.610;2023-11-18T01:05:48;97565.97;;;0.92;90.55
4199;BME280;2113;50.946;14.610;2023-11-18T01:08:17;97566.91;;;0.91;91.31
4199;BME280;2113;50.946;14.610;2023-11-18T01:10:46;97574.59;;;0.93;90.81
4199;BME280;2113;50.946;14.610;2023-11-18T01:13:15;97565.25;;;0.90;90.61
4199;BME280;2113;50.946;14.610;2023-11-18T01:15:46;97580.59;;;0.93;91.13
4199;BME280;2113;50.946;14.610;2023-11-18T01:18:14;97577.53;;;0.88;91.24
4199;BME280;2113;50.946;14.610;2023-11-18T01:24:08;97588.25;;;0.95;90.87
4199;BME280;2113;50.946;14.610;2023-11-18T01:26:37;97589.09;;;0.95;91.29
4199;BME280;2113;50.946;14.610;2023-11-18T01:29:08;97591.56;;;0.97;91.56
4199;BME280;2113;50.946;14.610;2023-11-18T01:31:37;97584.22;;;1.02;91.65
4199;BME280;2113;50.946;14.610;2023-11-18T01:34:18;97590.13;;;1.04;91.11
4199;BME280;2113;50.946;14.610;2023-11-18T01:36:49;97598.72;;;1.04;90.85
4199;BME280;2113;50.946;14.610;2023-11-18T01:39:17;97598.03;;;1.02;90.65
4199;BME280;2113;50.946;14.610;2023-11-18T01:41:46;97599.53;;;1.05;91.51
4199;BME280;2113;50.946;14.610;2023-11-18T01:44:18;97610.75;;;1.05;90.71
4199;BME280;2113;50.946;14.610;2023-11-18T01:46:47;97600.38;;;1.05;91.10
4199;BME280;2113;50.946;14.610;2023-11-18T01:49:16;97607.47;;;1.03;90.54
4199;BME280;2113;50.946;14.610;2023-11-18T01:51:47;97605.56;;;1.05;90.81
4199;BME280;2113;50.946;14.610;2023-11-18T01:54:16;97603.69;;;1.07;90.39
4199;BME280;2113;50.946;14.610;2023-11-18T01:56:48;97598.72;;;1.04;90.24
4199;BME280;2113;50.946;14.610;2023-11-18T01:59:18;97612.78;;;1.02;90.69
4199;BME280;2113;50.946;14.610;2023-11-18T02:01:48;97613.63;;;1.02;90.36
4199;BME280;2113;50.946;14.610;2023-11-18T02:04:17;97608.28;;;1.04;91.00
4199;BME280;2113;50.946;14.610;2023-11-18T02:06:48;97611.09;;;1.12;90.94
4199;BME280;2113;50.946;14.610;2023-11-18T02:09:18;97605.56;;;1.05;90.74
4199;BME280;2113;50.946;14.610;2023-11-18T02:11:59;97618.81;;;1.02;90.90
4199;BME280;2113;50.946;14.610;2023-11-18T02:14:31;97622.22;;;1.03;91.12
4199;BME280;2113;50.946;14.610;2023-11-18T02:17:02;97628.94;;;1.05;91.56
4199;BME280;2113;50.946;14.610;2023-11-18T02:19:33;97625.28;;;1.08;91.35
4199;BME280;2113;50.946;14.610;2023-11-18T02:22:03;97629.88;;;1.04;91.19
4199;BME280;2113;50.946;14.610;2023-11-18T02:24:34;97619.75;;;1.01;90.50
4199;BME280;2113;50.946;14.610;2023-11-18T02:27:06;97627.69;;;1.00;90.79
4199;BME280;2113;50.946;14.610;2023-11-18T02:29:37;97635.22;;;1.03;90.84
4199;BME280;2113;50.946;14.610;2023-11-18T02:32:14;97629.47;;;0.99;90.97
4199;BME280;2113;50.946;14.610;2023-11-18T02:34:50;97633.09;;;0.97;91.28
4199;BME280;2113;50.946;14.610;2023-11-18T02:37:21;97635.84;;;0.95;91.53
4199;BME280;2113;50.946;14.610;2023-11-18T02:39:52;97628.88;;;0.96;91.18
4199;BME280;2113;50.946;14.610;2023-11-18T02:42:26;97641.03;;;0.95;90.65
4199;BME280;2113;50.946;14.610;2023-11-18T02:44:57;97634.41;;;0.91;90.57
4199;BME280;2113;50.946;14.610;2023-11-18T02:47:27;97625.69;;;0.92;90.63
4199;BME280;2113;50.946;14.610;2023-11-18T02:49:55;97622.16;;;0.93;90.23
4199;BME280;2113;50.946;14.610;2023-11-18T02:52:33;97637.13;;;0.90;90.62
4199;BME280;2113;50.946;14.610;2023-11-18T02:55:02;97629.94;;;0.93;90.29
4199;BME280;2113;50.946;14.610;2023-11-18T02:57:31;97631.72;;;0.93;91.00
4199;BME280;2113;50.946;14.610;2023-11-18T03:00:00;97622.97;;;0.94;90.20
4199;BME280;2113;50.946;14.610;2023-11-18T03:02:31;97630.06;;;0.92;90.29
4199;BME280;2113;50.946;14.610;2023-11-18T03:04:59;97624.28;;;0.88;90.72
4199;BME280;2113;50.946;14.610;2023-11-18T03:07:28;97622.63;;;0.87;90.98
4199;BME280;2113;50.946;14.610;2023-11-18T03:09:56;97622.38;;;0.90;91.58
4199;BME280;2113;50.946;14.610;2023-11-18T03:12:25;97617.56;;;0.86;91.47
4199;BME280;2113;50.946;14.610;2023-11-18T03:14:56;97619.09;;;0.88;91.27
4199;BME280;2113;50.946;14.610;2023-11-18T03:17:24;97626.06;;;0.88;91.32
4199;BME280;2113;50.946;14.610;2023-11-18T03:19:53;97637.25;;;0.88;91.25
4199;BME280;2113;50.946;14.610;2023-11-18T03:22:21;97627.84;;;0.87;90.66
4199;BME280;2113;50.946;14.610;2023-11-18T03:24:49;97630.16;;;0.90;91.01
4199;BME280;2113;50.946;14.610;2023-11-18T03:27:18;97632.34;;;0.85;90.83
4199;BME280;2113;50.946;14.610;2023-11-18T03:29:46;97629.72;;;0.85;90.42
4199;BME280;2113;50.946;14.610;2023-11-18T03:32:19;97632.34;;;0.85;90.50
4199;BME280;2113;50.946;14.610;2023-11-18T03:34:47;97636.44;;;0.88;90.90
4199;BME280;2113;50.946;14.610;2023-11-18T03:37:15;97646.69;;;0.89;90.37
4199;BME280;2113;50.946;14.610;2023-11-18T03:39:45;97644.78;;;0.91;90.52
4199;BME280;2113;50.946;14.610;2023-11-18T03:42:13;97646.47;;;0.92;90.89
4199;BME280;2113;50.946;14.610;2023-11-18T03:44:43;97645.75;;;0.90;89.57
4199;BME280;2113;50.946;14.610;2023-11-18T03:47:15;97650.72;;;0.93;90.25
4199;BME280;2113;50.946;14.610;2023-11-18T03:49:44;97651.75;;;0.91;89.47
4199;BME280;2113;50.946;14.610;2023-11-18T03:52:13;97643.75;;;0.94;90.26
4199;BME280;2113;50.946;14.610;2023-11-18T03:54:41;97651.41;;;0.95;90.37
4199;BME280;2113;50.946;14.610;2023-11-18T03:57:10;97658.50;;;0.93;89.60
4199;BME280;2113;50.946;14.610;2023-11-18T03:59:38;97654.97;;;0.94;89.46
4199;BME280;2113;50.946;14.610;2023-11-18T04:02:07;97653.88;;;0.97;89.56
4199;BME280;2113;50.946;14.610;2023-11-18T04:04:38;97649.91;;;0.93;89.66
4199;BME280;2113;50.946;14.610;2023-11-18T04:07:07;97659.47;;;0.92;90.19
4199;BME280;2113;50.946;14.610;2023-11-18T04:09:36;97652.50;;;0.93;89.66
4199;BME280;2113;50.946;14.610;2023-11-18T04:12:04;97656.59;;;0.95;90.01
4199;BME280;2113;50.946;14.610;2023-11-18T04:14:33;97660.97;;;0.95;90.44
4199;BME280;2113;50.946;14.610;2023-11-18T04:17:02;97657.56;;;0.94;90.75
4199;BME280;2113;50.946;14.610;2023-11-18T04:19:30;97657.09;;;0.89;90.06
4199;BME280;2113;50.946;14.610;2023-11-18T04:21:59;97654.38;;;0.91;90.80
4199;BME280;2113;50.946;14.610;2023-11-18T04:24:28;97659.81;;;0.88;90.50
4199;BME280;2113;50.946;14.610;2023-11-18T04:26:57;97666.63;;;1.00;90.60
4199;BME280;2113;50.946;14.610;2023-11-18T04:29:25;97667.25;;;0.92;91.25
4199;BME280;2113;50.946;14.610;2023-11-18T04:31:54;97664.75;;;0.91;90.32
4199;BME280;2113;50.946;14.610;2023-11-18T04:34:22;97662.28;;;0.89;90.76
4199;BME280;2113;50.946;14.610;2023-11-18T04:36:52;97669.59;;;0.84;90.40
4199;BME280;2113;50.946;14.610;2023-11-18T04:39:20;97661.47;;;0.89;90.87
4199;BME280;2113;50.946;14.610;2023-11-18T04:41:50;97664.19;;;0.87;90.84
4199;BME280;2113;50.946;14.610;2023-11-18T04:44:19;97661.47;;;0.89;91.38
4199;BME280;2113;50.946;14.610;2023-11-18T04:46:47;97657.91;;;0.90;91.08
4199;BME280;2113;50.946;14.610;2023-11-18T04:49:17;97665.47;;;0.81;91.17
4199;BME280;2113;50.946;14.610;2023-11-18T04:51:45;97665.25;;;0.73;90.72
4199;BME280;2113;50.946;14.610;2023-11-18T04:54:14;97663.75;;;0.71;90.62
4199;BME280;2113;50.946;14.610;2023-11-18T04:56:42;97673.66;;;0.66;90.97
4199;BME280;2113;50.946;14.610;2023-11-18T04:59:12;97678.38;;;0.72;91.25
4199;BME280;2113;50.946;14.610;2023-11-18T05:01:40;97674.34;;;0.68;90.87
4199;BME280;2113;50.946;14.610;2023-11-18T05:04:11;97675.03;;;0.70;91.25
4199;BME280;2113;50.946;14.610;2023-11-18T05:06:40;97675.53;;;0.75;91.58
4199;BME280;2113;50.946;14.610;2023-11-18T05:09:08;97679.88;;;0.74;91.31
4199;BME280;2113;50.946;14.610;2023-11-18T05:11:36;97684.00;;;0.77;91.89
4199;BME280;2113;50.946;14.610;2023-11-18T05:14:05;97687.34;;;0.79;92.14
4199;BME280;2113;50.946;14.610;2023-11-18T05:16:37;97693.09;;;0.82;91.83
4199;BME280;2113;50.946;14.610;2023-11-18T05:19:06;97687.78;;;0.84;91.94
4199;BME280;2113;50.946;14.610;2023-11-18T05:21:34;97692.63;;;0.89;91.52
4199;BME280;2113;50.946;14.610;2023-11-18T05:24:04;97697.94;;;0.87;91.50
4199;BME280;2113;50.946;14.610;2023-11-18T05:26:32;97690.50;;;0.82;92.01
4199;BME280;2113;50.946;14.610;2023-11-18T05:29:01;97699.94;;;0.83;91.91
4199;BME280;2113;50.946;14.610;2023-11-18T05:31:30;97698.06;;;0.86;91.89
4199;BME280;2113;50.946;14.610;2023-11-18T05:34:01;97698.28;;;0.82;92.32
4199;BME280;2113;50.946;14.610;2023-11-18T05:36:30;97695.69;;;0.82;92.40
4199;BME280;2113;50.946;14.610;2023-11-18T05:39:04;97690.63;;;0.81;91.86
4199;BME280;2113;50.946;14.610;2023-11-18T05:41:34;97695.47;;;0.86;92.50
4199;BME280;2113;50.946;14.610;2023-11-18T05:44:03;97702.19;;;0.88;92.46
4199;BME280;2113;50.946;14.610;2023-11-18T05:46:36;97701.69;;;0.94;92.53
4199;BME280;2113;50.946;14.610;2023-11-18T05:49:07;97708.31;;;0.87;91.90
4199;BME280;2113;50.946;14.610;2023-11-18T05:51:36;97721.06;;;0.90;92.08
4199;BME280;2113;50.946;14.610;2023-11-18T05:54:04;97710.66;;;0.90;91.90
4199;BME280;2113;50.946;14.610;2023-11-18T05:56:33;97719.19;;;0.92;91.51
4199;BME280;2113;50.946;14.610;2023-11-18T05:59:02;97716.81;;;0.89;92.04
4199;BME280;2113;50.946;14.610;2023-11-18T06:01:30;97719.41;;;0.89;92.07
4199;BME280;2113;50.946;14.610;2023-11-18T06:04:00;97716.00;;;0.89;91.53
4199;BME280;2113;50.946;14.610;2023-11-18T06:06:30;97716.13;;;0.87;91.35
4199;BME280;2113;50.946;14.610;2023-11-18T06:08:58;97715.88;;;0.90;91.54
4199;BME280;2113;50.946;14.610;2023-11-18T06:11:35;97713.50;;;0.87;91.77
4199;BME280;2113;50.946;14.610;2023-11-18T06:14:04;97709.50;;;0.83;91.90
4199;BME280;2113;50.946;14.610;2023-11-18T06:16:35;97720.47;;;0.87;91.52
4199;BME280;2113;50.946;14.610;2023-11-18T06:19:08;97709.28;;;0.86;91.67
4199;BME280;2113;50.946;14.610;2023-11-18T06:21:38;97712.31;;;0.91;92.21
4199;BME280;2113;50.946;14.610;2023-11-18T06:24:07;97715.63;;;0.93;91.16
4199;BME280;2113;50.946;14.610;2023-11-18T06:26:38;97717.50;;;0.91;91.25
4199;BME280;2113;50.946;14.610;2023-11-18T06:29:06;97716.69;;;0.91;91.77
4199;BME280;2113;50.946;14.610;2023-11-18T06:31:34;97717.50;;;0.91;91.31
4199;BME280;2113;50.946;14.610;2023-11-18T06:34:03;97722.13;;;0.88;91.92
4199;BME280;2113;50.946;14.610;2023-11-18T06:36:31;97726.25;;;0.90;92.37
4199;BME280;2113;50.946;14.610;2023-11-18T06:39:00;97728.84;;;0.90;91.90
4199;BME280;2113;50.946;14.610;2023-11-18T06:41:31;97733.00;;;0.93;92.09
4199;BME280;2113;50.946;14.610;2023-11-18T06:44:01;97736.63;;;0.90;92.31
4199;BME280;2113;50.946;14.610;2023-11-18T06:46:36;97730.41;;;0.93;91.57
4199;BME280;2113;50.946;14.610;2023-11-18T06:49:07;97747.03;;;0.90;91.37
4199;BME280;2113;50.946;14.610;2023-11-18T06:51:38;97744.44;;;0.90;92.10
4199;BME280;2113;50.946;14.610;2023-11-18T06:54:08;97750.56;;;0.89;91.52
4199;BME280;2113;50.946;14.610;2023-11-18T06:56:39;97744.69;;;0.87;91.68
4199;BME280;2113;50.946;14.610;2023-11-18T06:59:10;97743.72;;;0.88;92.36
4199;BME280;2113;50.946;14.610;2023-11-18T07:01:40;97745.38;;;0.89;91.97
4199;BME280;2113;50.946;14.610;2023-11-18T07:04:10;97746.56;;;0.96;92.18
4199;BME280;2113;50.946;14.610;2023-11-18T07:06:38;97740.53;;;0.96;92.18
4199;BME280;2113;50.946;14.610;2023-11-18T07:09:09;97745.72;;;0.96;91.52
4199;BME280;2113;50.946;14.610;2023-11-18T07:11:44;97753.16;;;1.00;91.79
4199;BME280;2113;50.946;14.610;2023-11-18T07:14:14;97753.75;;;1.04;91.66
4199;BME280;2113;50.946;14.610;2023-11-18T07:16:43;97755.16;;;1.08;92.06
4199;BME280;2113;50.946;14.610;2023-11-18T07:19:12;97754.56;;;1.04;91.75
4199;BME280;2113;50.946;14.610;2023-11-18T07:21:49;97766.59;;;1.05;91.49
4199;BME280;2113;50.946;14.610;2023-11-18T07:24:19;97768.03;;;1.09;91.98
4199;BME280;2113;50.946;14.610;2023-11-18T07:26:48;97777.59;;;1.09;91.80
4199;BME280;2113;50.946;14.610;2023-11-18T07:29:18;97775.69;;;1.11;91.61
4199;BME280;2113;50.946;14.610;2023-11-18T07:31:47;97771.69;;;1.07;91.96
4199;BME280;2113;50.946;14.610;2023-11-18T07:34:16;97777.59;;;1.09;91.92
4199;BME280;2113;50.946;14.610;2023-11-18T07:36:44;97771.91;;;1.15;91.61
4199;BME280;2113;50.946;14.610;2023-11-18T07:39:13;97782.66;;;1.10;91.47
4199;BME280;2113;50.946;14.610;2023-11-18T07:41:48;97783.88;;;1.06;91.32
4199;BME280;2113;50.946;14.610;2023-11-18T07:44:16;97785.50;;;1.07;90.96
4199;BME280;2113;50.946;14.610;2023-11-18T07:46:45;97787.38;;;1.05;90.64
4199;BME280;2113;50.946;14.610;2023-11-18T07:49:13;97798.84;;;1.03;91.36
4199;BME280;2113;50.946;14.610;2023-11-18T07:51:43;97799.66;;;1.03;90.78
4199;BME280;2113;50.946;14.610;2023-11-18T07:54:11;97807.34;;;1.05;90.86
4199;BME280;2113;50.946;14.610;2023-11-18T07:56:40;97805.81;;;1.02;90.91
4199;BME280;2113;50.946;14.610;2023-11-18T07:59:10;97802.03;;;1.06;91.02
4199;BME280;2113;50.946;14.610;2023-11-18T08:01:43;97802.13;;;1.05;90.66
4199;BME280;2113;50.946;14.610;2023-11-18T08:04:13;97810.75;;;1.05;90.26
4199;BME280;2113;50.946;14.610;2023-11-18T08:06:41;97806.03;;;1.10;91.15
4199;BME280;2113;50.946;14.610;2023-11-18T08:09:11;97797.66;;;1.18;90.81
4199;BME280;2113;50.946;14.610;2023-11-18T08:11:40;97798.25;;;1.22;90.44
4199;BME280;2113;50.946;14.610;2023-11-18T08:14:10;97798.25;;;1.22;90.60
4199;BME280;2113;50.946;14.610;2023-11-18T08:16:38;97799.78;;;1.24;91.10
4199;BME280;2113;50.946;14.610;2023-11-18T08:19:07;97799.78;;;1.24;90.78
4199;BME280;2113;50.946;14.610;2023-11-18T08:21:36;97799.16;;;1.32;90.42
4199;BME280;2113;50.946;14.610;2023-11-18T08:24:06;97813.34;;;1.39;90.38
4199;BME280;2113;50.946;14.610;2023-11-18T08:26:35;97820.09;;;1.42;90.10
4199;BME280;2113;50.946;14.610;2023-11-18T08:29:03;97820.91;;;1.42;90.21
4199;BME280;2113;50.946;14.610;2023-11-18T08:31:35;97825.75;;;1.35;90.01
4199;BME280;2113;50.946;14.610;2023-11-18T08:34:03;97830.69;;;1.38;89.92
4199;BME280;2113;50.946;14.610;2023-11-18T08:36:32;97841.91;;;1.39;90.42
4199;BME280;2113;50.946;14.610;2023-11-18T08:39:01;97837.19;;;1.44;90.48
4199;BME280;2113;50.946;14.610;2023-11-18T08:41:29;97851.84;;;1.45;89.90
4199;BME280;2113;50.946;14.610;2023-11-18T08:43:57;97852.78;;;1.55;89.67
4199;BME280;2113;50.946;14.610;2023-11-18T08:46:49;97854.78;;;1.63;89.89
4199;BME280;2113;50.946;14.610;2023-11-18T08:49:19;97856.03;;;1.80;89.60
4199;BME280;2113;50.946;14.610;2023-11-18T08:51:48;97853.09;;;1.84;89.00
4199;BME280;2113;50.946;14.610;2023-11-18T08:54:24;97858.78;;;1.78;89.17
4199;BME280;2113;50.946;14.610;2023-11-18T08:57:04;97855.91;;;1.81;88.19
4199;BME280;2113;50.946;14.610;2023-11-18T08:59:46;97848.84;;;1.72;88.17
4199;BME280;2113;50.946;14.610;2023-11-18T09:02:17;97851.81;;;1.68;88.85
4199;BME280;2113;50.946;14.610;2023-11-18T09:04:50;97855.34;;;1.67;88.95
4199;BME280;2113;50.946;14.610;2023-11-18T09:07:19;97864.59;;;1.71;88.97
4199;BME280;2113;50.946;14.610;2023-11-18T09:09:48;97864.59;;;1.71;89.02
4199;BME280;2113;50.946;14.610;2023-11-18T09:12:19;97863.34;;;1.86;88.85
4199;BME280;2113;50.946;14.610;2023-11-18T09:14:47;97863.66;;;2.04;89.01
4199;BME280;2113;50.946;14.610;2023-11-18T09:17:18;97862.25;;;2.32;88.48
4199;BME280;2113;50.946;14.610;2023-11-18T09:19:49;97859.88;;;2.40;87.15
4199;BME280;2113;50.946;14.610;2023-11-18T09:22:19;97855.19;;;2.75;87.33
4199;BME280;2113;50.946;14.610;2023-11-18T09:24:47;97856.81;;;2.77;85.47
4199;BME280;2113;50.946;14.610;2023-11-18T09:27:17;97858.00;;;2.52;85.94
4199;BME280;2113;50.946;14.610;2023-11-18T09:29:46;97864.81;;;2.43;87.45
4199;BME280;2113;50.946;14.610;2023-11-18T09:32:17;97862.63;;;2.27;86.18
4199;BME280;2113;50.946;14.610;2023-11-18T09:34:46;97863.91;;;2.33;86.25
4199;BME280;2113;50.946;14.610;2023-11-18T09:37:15;97872.91;;;2.29;86.23
4199;BME280;2113;50.946;14.610;2023-11-18T09:39:43;97872.03;;;2.18;86.90
4199;BME280;2113;50.946;14.610;2023-11-18T09:42:13;97869.81;;;2.35;87.03
4199;BME280;2113;50.946;14.610;2023-11-18T09:44:47;97869.91;;;2.65;86.29
4199;BME280;2113;50.946;14.610;2023-11-18T09:47:19;97860.16;;;2.88;84.46
4199;BME280;2113;50.946;14.610;2023-11-18T09:49:52;97862.06;;;2.86;85.42
4199;BME280;2113;50.946;14.610;2023-11-18T09:52:26;97865.63;;;2.85;84.83
4199;BME280;2113;50.946;14.610;2023-11-18T09:55:02;97868.75;;;2.58;84.75
4199;BME280;2113;50.946;14.610;2023-11-18T09:57:32;97870.56;;;2.46;86.19
4199;BME280;2113;50.946;14.610;2023-11-18T10:00:05;97868.94;;;2.45;84.03
4199;BME280;2113;50.946;14.610;2023-11-18T10:02:49;97876.63;;;2.47;84.45
4199;BME280;2113;50.946;14.610;2023-11-18T10:05:19;97862.91;;;3.48;84.70
4199;BME280;2113;50.946;14.610;2023-11-18T10:07:50;97870.16;;;3.84;78.81
4199;BME280;2113;50.946;14.610;2023-11-18T10:10:18;97869.28;;;3.24;79.96
4199;BME280;2113;50.946;14.610;2023-11-18T10:12:49;97870.53;;;2.79;81.62
4199;BME280;2113;50.946;14.610;2023-11-18T10:15:21;97876.31;;;2.61;83.83
4199;BME280;2113;50.946;14.610;2023-11-18T10:17:52;97874.91;;;2.57;84.62
4199;BME280;2113;50.946;14.610;2023-11-18T10:20:45;97880.50;;;2.73;84.04
4199;BME280;2113;50.946;14.610;2023-11-18T10:23:14;97870.34;;;2.70;83.95
4199;BME280;2113;50.946;14.610;2023-11-18T10:25:46;97875.16;;;2.96;83.88
4199;BME280;2113;50.946;14.610;2023-11-18T10:28:24;97877.78;;;3.26;83.06
4199;BME280;2113;50.946;14.610;2023-11-18T10:30:55;97879.59;;;3.05;82.18
4199;BME280;2113;50.946;14.610;2023-11-18T10:33:26;97866.72;;;2.83;82.84
4199;BME280;2113;50.946;14.610;2023-11-18T10:35:59;97874.09;;;2.78;83.70
4199;BME280;2113;50.946;14.610;2023-11-18T10:38:31;97870.22;;;2.93;82.88
4199;BME280;2113;50.946;14.610;2023-11-18T10:41:04;97872.31;;;2.99;82.29
4199;BME280;2113;50.946;14.610;2023-11-18T10:43:33;97874.06;;;3.19;81.92
4199;BME280;2113;50.946;14.610;2023-11-18T10:46:07;97880.22;;;3.18;81.76
4199;BME280;2113;50.946;14.610;2023-11-18T10:48:41;97881.22;;;3.27;81.36
4199;BME280;2113;50.946;14.610;2023-11-18T10:51:11;97865.38;;;3.40;81.31
4199;BME280;2113;50.946;14.610;2023-11-18T10:53:40;97865.72;;;3.66;80.64
4199;BME280;2113;50.946;14.610;2023-11-18T10:56:20;97859.72;;;3.94;79.05
4199;BME280;2113;50.946;14.610;2023-11-18T10:58:55;97863.16;;;3.85;79.82
4199;BME280;2113;50.946;14.610;2023-11-18T11:01:28;97857.25;;;3.93;79.28
4199;BME280;2113;50.946;14.610;2023-11-18T11:03:58;97859.88;;;4.22;79.92
4199;BME280;2113;50.946;14.610;2023-11-18T11:06:30;97849.84;;;4.36;78.71
4199;BME280;2113;50.946;14.610;2023-11-18T11:08:59;97861.81;;;4.20;79.13
4199;BME280;2113;50.946;14.610;2023-11-18T11:11:32;97866.50;;;3.56;79.38
4199;BME280;2113;50.946;14.610;2023-11-18T11:14:05;97874.28;;;3.16;81.07
4199;BME280;2113;50.946;14.610;2023-11-18T11:16:38;97869.00;;;2.97;82.55
4199;BME280;2113;50.946;14.610;2023-11-18T11:19:18;97878.66;;;3.06;82.73
4199;BME280;2113;50.946;14.610;2023-11-18T11:21:54;97871.34;;;3.00;81.12
4199;BME280;2113;50.946;14.610;2023-11-18T11:24:41;97864.66;;;3.07;82.91
4199;BME280;2113;50.946;14.610;2023-11-18T11:27:22;97876.56;;;3.00;82.94
4199;BME280;2113;50.946;14.610;2023-11-18T11:30:01;97876.00;;;2.75;83.85
4199;BME280;2113;50.946;14.610;2023-11-18T11:32:43;97880.81;;;2.80;82.97
4199;BME280;2113;50.946;14.610;2023-11-18T11:35:21;97874.22;;;2.76;82.99
4199;BME280;2113;50.946;14.610;2023-11-18T11:37:52;97880.75;;;2.91;84.11
4199;BME280;2113;50.946;14.610;2023-11-18T11:40:26;97877.47;;;2.89;82.76
4199;BME280;2113;50.946;14.610;2023-11-18T11:42:56;97881.94;;;3.08;82.97
4199;BME280;2113;50.946;14.610;2023-11-18T11:45:28;97886.19;;;3.09;82.79
4199;BME280;2113;50.946;14.610;2023-11-18T11:47:59;97881.19;;;3.17;82.29
4199;BME280;2113;50.946;14.610;2023-11-18T11:51:01;97892.13;;;3.11;81.53
4199;BME280;2113;50.946;14.610;2023-11-18T11:53:35;97885.50;;;3.07;80.62
4199;BME280;2113;50.946;14.610;2023-11-18T11:56:07;97887.97;;;3.09;82.24
4199;BME280;2113;50.946;14.610;2023-11-18T11:58:41;97879.59;;;3.05;82.03
4199;BME280;2113;50.946;14.610;2023-11-18T12:01:16;97886.47;;;3.06;81.08
4199;BME280;2113;50.946;14.610;2023-11-18T12:03:52;97885.84;;;3.23;81.13
4199;BME280;2113;50.946;14.610;2023-11-18T12:06:27;97878.50;;;3.78;80.19
4199;BME280;2113;50.946;14.610;2023-11-18T12:08:56;97872.69;;;4.34;76.23
4199;BME280;2113;50.946;14.610;2023-11-18T12:11:24;97864.72;;;4.46;75.58
4199;BME280;2113;50.946;14.610;2023-11-18T12:14:00;97864.16;;;4.23;77.48
4199;BME280;2113;50.946;14.610;2023-11-18T12:16:59;97862.75;;;3.90;77.13
4199;BME280;2113;50.946;14.610;2023-11-18T12:19:36;97862.19;;;3.76;78.93
4199;BME280;2113;50.946;14.610;2023-11-18T12:22:15;97862.03;;;3.68;78.79
4199;BME280;2113;50.946;14.610;2023-11-18T12:27:56;97875.28;;;3.46;77.84
4199;BME280;2113;50.946;14.610;2023-11-18T12:30:38;97875.91;;;3.78;78.81
4199;BME280;2113;50.946;14.610;2023-11-18T12:33:10;97873.06;;;4.01;76.35
4199;BME280;2113;50.946;14.610;2023-11-18T12:42:54;97862.84;;;3.28;78.05
4199;BME280;2113;50.946;14.610;2023-11-18T12:45:43;97856.59;;;3.41;80.11
4199;BME280;2113;50.946;14.610;2023-11-18T12:48:14;97859.53;;;3.26;80.51
4199;BME280;2113;50.946;14.610;2023-11-18T12:50:44;97862.50;;;3.12;80.01
4199;BME280;2113;50.946;14.610;2023-11-18T12:53:13;97855.19;;;3.06;79.83
4199;BME280;2113;50.946;14.610;2023-11-18T12:55:47;97844.75;;;3.37;79.80
4199;BME280;2113;50.946;14.610;2023-11-18T12:58:17;97846.78;;;3.73;79.72
4199;BME280;2113;50.946;14.610;2023-11-18T13:00:45;97847.06;;;3.70;76.77
4199;BME280;2113;50.946;14.610;2023-11-18T13:03:13;97846.00;;;3.92;76.32
4199;BME280;2113;50.946;14.610;2023-11-18T13:05:43;97847.88;;;3.71;76.20
4199;BME280;2113;50.946;14.610;2023-11-18T13:08:12;97844.97;;;3.54;78.62
4199;BME280;2113;50.946;14.610;2023-11-18T13:10:42;97844.22;;;3.33;80.22
4199;BME280;2113;50.946;14.610;2023-11-18T13:13:13;97849.34;;;3.14;80.37
4199;BME280;2113;50.946;14.610;2023-11-18T13:15:44;97841.44;;;3.25;80.14
4199;BME280;2113;50.946;14.610;2023-11-18T13:18:12;97843.09;;;3.36;80.39
4199;BME280;2113;50.946;14.610;2023-11-18T13:20:41;97842.94;;;3.27;80.44
4199;BME280;2113;50.946;14.610;2023-11-18T13:23:21;97834.81;;;3.21;79.96
4199;BME280;2113;50.946;14.610;2023-11-18T13:25:50;97831.47;;;3.09;81.31
4199;BME280;2113;50.946;14.610;2023-11-18T13:28:22;97849.97;;;2.75;82.29
4199;BME280;2113;50.946;14.610;2023-11-18T13:30:50;97837.81;;;2.65;82.59
4199;BME280;2113;50.946;14.610;2023-11-18T13:33:18;97840.25;;;2.57;81.90
4199;BME280;2113;50.946;14.610;2023-11-18T13:35:48;97840.69;;;2.62;82.69
4199;BME280;2113;50.946;14.610;2023-11-18T13:38:17;97838.47;;;2.57;82.49
4199;BME280;2113;50.946;14.610;2023-11-18T13:40:47;97841.75;;;2.59;82.65
4199;BME280;2113;50.946;14.610;2023-11-18T13:43:15;97839.66;;;2.53;82.54
4199;BME280;2113;50.946;14.610;2023-11-18T13:45:50;97838.50;;;2.67;83.39
4199;BME280;2113;50.946;14.610;2023-11-18T13:48:21;97838.81;;;2.73;82.77
4199;BME280;2113;50.946;14.610;2023-11-18T13:50:51;97828.59;;;2.82;82.09
4199;BME280;2113;50.946;14.610;2023-11-18T13:53:20;97835.88;;;2.88;81.25
4199;BME280;2113;50.946;14.610;2023-11-18T13:55:48;97817.97;;;2.94;80.80